createdAt,value
2022-09-12T00:01:46.972Z,16.80
2022-09-12T00:04:48.447Z,16.74
2022-09-12T00:07:49.945Z,16.70
2022-09-12T00:10:51.532Z,16.66
2022-09-12T00:13:59.302Z,16.64
2022-09-12T00:17:01.658Z,16.57
2022-09-12T00:20:08.710Z,16.55
2022-09-12T00:23:10.925Z,16.52
2022-09-12T00:26:13.261Z,16.52
2022-09-12T00:29:20.463Z,16.48
2022-09-12T00:32:21.832Z,16.46
2022-09-12T00:35:23.207Z,16.43
2022-09-12T00:38:24.590Z,16.44
2022-09-12T00:41:34.985Z,16.41
2022-09-12T00:44:45.315Z,16.42
2022-09-12T00:47:46.725Z,16.42
2022-09-12T00:50:49.771Z,16.40
2022-09-12T00:53:54.987Z,16.37
2022-09-12T00:57:00.658Z,16.40
2022-09-12T01:00:16.640Z,16.34
2022-09-12T01:03:22.003Z,16.34
2022-09-12T01:06:28.401Z,16.39
2022-09-12T01:09:29.871Z,16.37
2022-09-12T01:12:33.001Z,16.35
2022-09-12T01:15:37.456Z,16.35
2022-09-12T01:18:51.346Z,16.30
2022-09-12T01:22:25.270Z,16.26
2022-09-12T01:25:45.129Z,16.26
2022-09-12T01:29:09.700Z,16.28
2022-09-12T01:32:24.814Z,16.23
2022-09-12T01:35:41.800Z,16.17
2022-09-12T01:38:50.237Z,16.10
2022-09-12T01:42:00.512Z,16.09
2022-09-12T01:45:11.433Z,16.08
2022-09-12T01:48:20.317Z,16.05
2022-09-12T01:51:28.168Z,16.05
2022-09-12T01:54:39.849Z,16.01
2022-09-12T01:57:57.805Z,15.94
2022-09-12T02:01:03.110Z,15.88
2022-09-12T02:04:20.798Z,15.87
2022-09-12T02:07:29.188Z,15.91
2022-09-12T02:10:34.425Z,15.87
2022-09-12T02:13:41.257Z,15.83
2022-09-12T02:16:46.750Z,15.82
2022-09-12T02:20:06.629Z,15.83
2022-09-12T02:23:12.049Z,15.84
2022-09-12T02:26:21.084Z,15.83
2022-09-12T02:29:24.078Z,15.85
2022-09-12T02:32:42.184Z,15.84
2022-09-12T02:35:57.924Z,15.82
2022-09-12T02:39:00.119Z,15.81
2022-09-12T02:42:02.898Z,15.81
2022-09-12T02:45:05.400Z,15.82
2022-09-12T02:48:22.277Z,15.78
2022-09-12T02:51:24.000Z,15.77
2022-09-12T02:54:25.718Z,15.78
2022-09-12T02:57:27.100Z,15.75
2022-09-12T03:00:32.721Z,15.72
2022-09-12T03:03:43.622Z,15.67
2022-09-12T03:07:03.652Z,15.64
2022-09-12T03:10:14.248Z,15.55
2022-09-12T03:13:25.090Z,15.40
2022-09-12T03:16:53.547Z,15.19
2022-09-12T03:20:03.417Z,15.06
2022-09-12T03:23:24.438Z,14.98
2022-09-12T03:26:31.329Z,14.90
2022-09-12T03:29:32.945Z,14.83
2022-09-12T03:32:51.973Z,14.77
2022-09-12T03:35:53.715Z,14.74
2022-09-12T03:38:55.649Z,14.74
2022-09-12T03:41:57.564Z,14.67
2022-09-12T03:44:59.006Z,14.59
2022-09-12T03:48:00.537Z,14.56
2022-09-12T03:51:04.130Z,14.46
2022-09-12T03:54:06.193Z,14.34
2022-09-12T03:57:07.570Z,14.24
2022-09-12T04:00:09.601Z,14.16
2022-09-12T04:03:19.256Z,14.21
2022-09-12T04:06:22.193Z,14.20
2022-09-12T04:09:23.847Z,14.29
2022-09-12T04:12:25.220Z,14.26
2022-09-12T04:15:27.622Z,14.29
2022-09-12T04:18:28.983Z,14.25
2022-09-12T04:21:31.611Z,14.18
2022-09-12T04:24:33.427Z,14.21
2022-09-12T04:27:35.367Z,14.22
2022-09-12T04:30:37.900Z,14.24
2022-09-12T04:33:39.667Z,14.27
2022-09-12T04:36:42.024Z,14.33
2022-09-12T04:39:43.451Z,14.44
2022-09-12T04:42:45.220Z,14.61
2022-09-12T04:45:46.775Z,14.70
2022-09-12T04:48:52.199Z,14.76
2022-09-12T04:51:55.973Z,14.77
2022-09-12T04:54:57.364Z,14.83
2022-09-12T04:57:58.821Z,14.87
2022-09-12T05:01:08.040Z,14.90
2022-09-12T05:04:11.392Z,14.93
2022-09-12T05:07:12.797Z,14.89
2022-09-12T05:10:14.572Z,14.95
2022-09-12T05:13:16.037Z,15.00
2022-09-12T05:16:18.345Z,14.96
2022-09-12T05:19:19.817Z,14.98
2022-09-12T05:22:21.517Z,14.97
2022-09-12T05:25:23.096Z,14.98
2022-09-12T05:28:28.743Z,15.01
2022-09-12T05:31:30.115Z,15.02
2022-09-12T05:34:31.888Z,15.06
2022-09-12T05:37:33.969Z,15.08
2022-09-12T05:40:35.668Z,15.09
2022-09-12T05:43:40.122Z,15.15
2022-09-12T05:46:43.595Z,15.17
2022-09-12T05:49:47.848Z,15.22
2022-09-12T05:52:50.216Z,15.31
2022-09-12T05:56:08.997Z,15.43
2022-09-12T05:59:16.384Z,15.58
2022-09-12T06:02:18.131Z,15.72
2022-09-12T06:05:19.547Z,15.74
2022-09-12T06:08:20.918Z,15.81
2022-09-12T06:11:25.872Z,15.90
2022-09-12T06:14:27.297Z,16.01
2022-09-12T06:17:28.705Z,16.10
2022-09-12T06:20:30.321Z,16.18
2022-09-12T06:23:32.413Z,16.26
2022-09-12T06:26:34.213Z,16.37
2022-09-12T06:29:35.582Z,16.46
2022-09-12T06:32:36.949Z,16.61
2022-09-12T06:35:38.576Z,16.67
2022-09-12T06:38:40.564Z,16.70
2022-09-12T06:41:44.166Z,16.73
2022-09-12T06:44:45.955Z,16.75
2022-09-12T06:47:47.367Z,16.81
2022-09-12T06:51:02.370Z,16.79
2022-09-12T06:54:05.310Z,16.87
2022-09-12T06:57:07.173Z,16.95
2022-09-12T07:00:10.049Z,17.02
2022-09-12T07:03:11.491Z,17.15
2022-09-12T07:06:14.348Z,17.29
2022-09-12T07:09:18.823Z,17.42
2022-09-12T07:12:20.192Z,17.46
2022-09-12T07:15:21.585Z,17.51
2022-09-12T07:18:23.593Z,17.55
2022-09-12T07:21:25.475Z,17.63
2022-09-12T07:24:26.923Z,17.70
2022-09-12T07:27:28.318Z,17.72
2022-09-12T07:30:29.724Z,17.74
2022-09-12T07:33:31.127Z,17.71
2022-09-12T07:36:32.707Z,17.97
2022-09-12T07:39:34.070Z,18.18
2022-09-12T07:42:35.760Z,18.34
2022-09-12T07:45:37.351Z,18.31
2022-09-12T07:48:39.555Z,18.41
2022-09-12T07:51:41.130Z,18.42
2022-09-12T07:54:42.520Z,18.44
2022-09-12T07:57:43.897Z,18.69
2022-09-12T08:00:45.869Z,18.76
2022-09-12T08:03:49.629Z,18.91
2022-09-12T08:06:51.494Z,19.01
2022-09-12T08:09:53.652Z,18.90
2022-09-12T08:12:55.025Z,19.10
2022-09-12T08:16:02.066Z,19.37
2022-09-12T08:19:04.369Z,19.54
2022-09-12T08:22:05.801Z,19.51
2022-09-12T08:25:08.614Z,19.49
2022-09-12T08:28:10.044Z,19.50
2022-09-12T08:31:14.269Z,19.64
2022-09-12T08:34:18.576Z,19.71
2022-09-12T08:37:19.954Z,19.83
2022-09-12T08:40:21.404Z,20.02
2022-09-12T08:43:40.324Z,20.00
2022-09-12T08:47:00.365Z,20.19
2022-09-12T08:50:12.547Z,20.38
2022-09-12T08:53:19.224Z,20.51
2022-09-12T08:56:20.616Z,20.50
2022-09-12T08:59:21.994Z,20.56
2022-09-12T09:02:57.357Z,20.55
2022-09-12T09:06:32.313Z,20.72
2022-09-12T09:09:48.153Z,20.64
2022-09-12T09:13:08.821Z,20.61
2022-09-12T09:16:30.569Z,20.84
2022-09-12T09:19:37.862Z,21.15
2022-09-12T09:23:15.349Z,21.39
2022-09-12T09:26:30.363Z,21.57
2022-09-12T09:29:44.085Z,21.51
2022-09-12T09:32:50.836Z,21.69
2022-09-12T09:36:02.217Z,21.72
2022-09-12T09:39:21.920Z,21.56
2022-09-12T09:42:53.833Z,21.70
2022-09-12T09:45:57.041Z,21.76
2022-09-12T09:49:03.166Z,21.76
2022-09-12T09:52:08.009Z,21.93
2022-09-12T09:55:17.597Z,22.12
2022-09-12T09:58:29.932Z,22.30
2022-09-12T10:01:31.358Z,22.19
2022-09-12T10:04:41.561Z,22.17
2022-09-12T10:07:50.397Z,22.47
2022-09-12T10:11:05.701Z,22.48
2022-09-12T10:14:39.195Z,22.52
2022-09-12T10:17:43.973Z,22.54
2022-09-12T10:20:45.789Z,22.52
2022-09-12T10:23:51.026Z,22.78
2022-09-12T10:26:57.663Z,22.96
2022-09-12T10:30:29.085Z,23.07
2022-09-12T10:33:41.937Z,23.23
2022-09-12T10:36:43.367Z,23.35
2022-09-12T10:39:53.699Z,23.60
2022-09-12T10:42:57.856Z,23.89
2022-09-12T10:46:20.156Z,24.04
2022-09-12T10:49:31.758Z,24.20
2022-09-12T10:52:33.126Z,24.06
2022-09-12T10:55:35.438Z,23.62
2022-09-12T10:58:46.853Z,23.63
2022-09-12T11:01:55.674Z,23.83
2022-09-12T11:05:37.198Z,24.05
2022-09-12T11:09:01.509Z,23.97
2022-09-12T11:12:11.524Z,24.16
2022-09-12T11:15:28.010Z,24.22
2022-09-12T11:19:03.702Z,24.38
2022-09-12T11:22:39.502Z,24.36
2022-09-12T11:25:52.680Z,24.41
2022-09-12T11:29:34.786Z,24.50
2022-09-12T11:33:01.394Z,24.24
2022-09-12T11:36:07.809Z,24.32
2022-09-12T11:39:15.448Z,24.33
2022-09-12T11:42:22.517Z,24.46
2022-09-12T11:45:32.537Z,24.70
2022-09-12T11:48:46.595Z,24.84
2022-09-12T11:51:57.529Z,24.70
2022-09-12T11:55:11.188Z,24.70
2022-09-12T11:58:12.916Z,24.60
2022-09-12T12:01:27.407Z,24.63
2022-09-12T12:04:41.271Z,24.89
2022-09-12T12:08:06.425Z,24.93
2022-09-12T12:11:26.889Z,25.02
2022-09-12T12:14:44.475Z,24.99
2022-09-12T12:17:59.327Z,24.89
2022-09-12T12:21:39.981Z,24.84
2022-09-12T12:24:57.488Z,25.07
2022-09-12T12:28:02.190Z,25.27
2022-09-12T12:31:05.691Z,25.39
2022-09-12T12:34:22.292Z,25.34
2022-09-12T12:37:29.235Z,25.31
2022-09-12T12:40:31.080Z,24.96
2022-09-12T12:43:32.640Z,25.03
2022-09-12T12:46:38.287Z,25.21
2022-09-12T12:49:39.810Z,25.32
2022-09-12T12:53:03.422Z,25.60
2022-09-12T12:56:05.239Z,25.52
2022-09-12T12:59:21.001Z,25.43
2022-09-12T13:02:33.469Z,25.62
2022-09-12T13:05:47.198Z,25.72
2022-09-12T13:09:00.046Z,25.77
2022-09-12T13:12:12.274Z,25.71
2022-09-12T13:15:36.871Z,25.94
2022-09-12T13:18:47.896Z,26.09
2022-09-12T13:22:15.523Z,26.26
2022-09-12T13:25:19.981Z,26.34
2022-09-12T13:28:21.547Z,26.20
2022-09-12T13:31:26.123Z,26.25
2022-09-12T13:34:32.756Z,26.31
2022-09-12T13:37:49.729Z,26.40
2022-09-12T13:41:15.040Z,26.57
2022-09-12T13:44:19.929Z,26.61
2022-09-12T13:47:30.926Z,26.56
2022-09-12T13:50:41.210Z,26.57
2022-09-12T13:53:46.151Z,26.87
2022-09-12T13:56:49.133Z,26.99
2022-09-12T13:59:55.365Z,27.09
2022-09-12T14:03:16.764Z,27.30
2022-09-12T14:06:18.899Z,27.44
2022-09-12T14:09:53.309Z,27.45
2022-09-12T14:12:57.195Z,27.49
2022-09-12T14:15:59.688Z,27.62
2022-09-12T14:19:01.768Z,27.70
2022-09-12T14:22:03.415Z,27.78
2022-09-12T14:25:05.481Z,27.85
2022-09-12T14:28:11.669Z,27.71
2022-09-12T14:31:16.720Z,27.91
2022-09-12T14:34:19.818Z,28.02
2022-09-12T14:37:21.199Z,28.15
2022-09-12T14:40:23.876Z,28.29
2022-09-12T14:43:27.542Z,28.33
2022-09-12T14:46:40.279Z,28.22
2022-09-12T14:49:42.396Z,28.01
2022-09-12T14:52:44.187Z,27.94
2022-09-12T14:55:52.959Z,28.08
2022-09-12T14:59:26.072Z,27.92
2022-09-12T15:02:27.471Z,27.72
2022-09-12T15:05:29.420Z,27.83
2022-09-12T15:08:32.115Z,27.90
2022-09-12T15:11:33.795Z,28.09
2022-09-12T15:14:35.278Z,28.41
2022-09-12T15:17:36.915Z,28.59
2022-09-12T15:20:41.035Z,28.73
2022-09-12T15:23:50.698Z,28.88
2022-09-12T15:26:52.576Z,28.92
2022-09-12T15:29:54.137Z,29.02
2022-09-12T15:32:55.593Z,29.08
2022-09-12T15:35:57.013Z,29.14
2022-09-12T15:38:58.492Z,29.08
2022-09-12T15:41:59.888Z,28.92
2022-09-12T15:45:02.700Z,29.02
2022-09-12T15:48:04.426Z,28.77
2022-09-12T15:51:15.455Z,28.74
2022-09-12T15:54:18.046Z,28.79
2022-09-12T15:57:19.498Z,28.79
2022-09-12T16:00:21.231Z,28.55
2022-09-12T16:03:25.698Z,28.56
2022-09-12T16:06:33.576Z,28.60
2022-09-12T16:09:37.967Z,28.46
2022-09-12T16:12:39.337Z,28.20
2022-09-12T16:15:40.835Z,27.81
2022-09-12T16:18:42.751Z,27.64
2022-09-12T16:21:44.222Z,27.47
2022-09-12T16:24:45.617Z,27.38
2022-09-12T16:27:47.078Z,27.19
2022-09-12T16:30:56.366Z,27.08
2022-09-12T16:33:57.784Z,26.80
2022-09-12T16:36:59.165Z,26.62
2022-09-12T16:40:01.402Z,26.59
2022-09-12T16:43:02.802Z,26.49
2022-09-12T16:46:10.163Z,26.38
2022-09-12T16:49:12.006Z,26.35
2022-09-12T16:52:16.412Z,26.28
2022-09-12T16:55:17.774Z,26.27
2022-09-12T16:58:19.138Z,26.17
2022-09-12T17:01:23.262Z,26.13
2022-09-12T17:04:24.656Z,26.03
2022-09-12T17:07:26.046Z,25.99
2022-09-12T17:10:27.906Z,25.83
2022-09-12T17:13:52.882Z,25.69
2022-09-12T17:16:52.472Z,25.56
2022-09-12T17:19:53.876Z,25.45
2022-09-12T17:22:55.261Z,25.30
2022-09-12T17:25:56.660Z,25.18
2022-09-12T17:28:58.299Z,25.14
2022-09-12T17:31:59.732Z,25.10
2022-09-12T17:35:01.083Z,25.00
2022-09-12T17:38:02.655Z,24.91
2022-09-12T17:41:09.007Z,24.79
2022-09-12T17:44:15.042Z,24.66
2022-09-12T17:47:16.492Z,24.55
2022-09-12T17:50:31.343Z,24.39
2022-09-12T17:53:34.493Z,24.24
2022-09-12T17:56:37.027Z,24.05
2022-09-12T17:59:38.425Z,23.89
2022-09-12T18:02:40.082Z,23.69
2022-09-12T18:05:48.605Z,23.55
2022-09-12T18:08:50.281Z,23.41
2022-09-12T18:11:52.460Z,23.32
2022-09-12T18:14:53.825Z,23.15
2022-09-12T18:17:55.185Z,22.95
2022-09-12T18:20:56.557Z,22.87
2022-09-12T18:24:01.318Z,22.72
2022-09-12T18:27:03.868Z,22.68
2022-09-12T18:30:20.634Z,22.54
2022-09-12T18:33:24.251Z,22.48
2022-09-12T18:36:26.051Z,22.36
2022-09-12T18:39:28.025Z,22.22
2022-09-12T18:42:29.568Z,22.19
2022-09-12T18:45:31.545Z,22.09
2022-09-12T18:48:33.890Z,21.93
2022-09-12T18:51:36.981Z,21.82
2022-09-12T18:54:38.476Z,21.79
2022-09-12T18:57:41.284Z,21.71
2022-09-12T19:00:44.573Z,21.67
2022-09-12T19:03:46.385Z,21.65
2022-09-12T19:06:48.332Z,21.62
2022-09-12T19:09:50.282Z,21.61
2022-09-12T19:12:51.705Z,21.53
2022-09-12T19:15:53.083Z,21.34
2022-09-12T19:18:55.833Z,21.28
2022-09-12T19:21:57.295Z,21.29
2022-09-12T19:24:58.668Z,21.18
2022-09-12T19:28:00.160Z,21.15
2022-09-12T19:31:06.614Z,21.11
2022-09-12T19:34:10.455Z,21.03
2022-09-12T19:37:11.913Z,20.96
2022-09-12T19:40:13.363Z,20.87
2022-09-12T19:43:14.768Z,20.79
2022-09-12T19:46:18.136Z,20.76
2022-09-12T19:49:19.571Z,20.71
2022-09-12T19:52:20.960Z,20.67
2022-09-12T19:55:22.383Z,20.58
2022-09-12T19:58:23.748Z,20.64
2022-09-12T20:01:29.462Z,20.71
2022-09-12T20:04:33.963Z,20.70
2022-09-12T20:07:35.307Z,20.66
2022-09-12T20:10:37.275Z,20.40
2022-09-12T20:13:38.661Z,20.37
2022-09-12T20:16:40.111Z,20.42
2022-09-12T20:19:41.479Z,20.41
2022-09-12T20:22:42.941Z,20.39
2022-09-12T20:25:44.404Z,20.33
2022-09-12T20:28:45.859Z,20.33
2022-09-12T20:31:47.413Z,20.30
2022-09-12T20:34:48.792Z,20.29
2022-09-12T20:37:50.332Z,20.28
2022-09-12T20:40:51.758Z,20.10
2022-09-12T20:43:54.715Z,20.03
2022-09-12T20:46:56.899Z,20.01
2022-09-12T20:49:58.433Z,19.93
2022-09-12T20:53:01.550Z,19.94
2022-09-12T20:56:05.267Z,19.96
2022-09-12T20:59:06.939Z,19.90
2022-09-12T21:02:15.309Z,19.89
2022-09-12T21:05:17.069Z,19.87
2022-09-12T21:08:18.427Z,19.83
2022-09-12T21:11:20.180Z,19.79
2022-09-12T21:14:21.852Z,19.78
2022-09-12T21:17:23.264Z,19.73
2022-09-12T21:20:24.888Z,19.71
2022-09-12T21:23:27.495Z,19.70
2022-09-12T21:26:29.747Z,19.67
2022-09-12T21:29:31.546Z,19.58
2022-09-12T21:32:35.890Z,19.59
2022-09-12T21:35:37.931Z,19.46
2022-09-12T21:38:39.477Z,19.39
2022-09-12T21:41:40.933Z,19.38
2022-09-12T21:44:42.327Z,19.26
2022-09-12T21:47:44.247Z,19.20
2022-09-12T21:50:50.582Z,19.16
2022-09-12T21:53:52.003Z,19.19
2022-09-12T21:56:53.365Z,19.19
2022-09-12T21:59:54.721Z,19.15
2022-09-12T22:02:57.477Z,19.17
2022-09-12T22:06:01.410Z,19.14
2022-09-12T22:09:04.385Z,19.09
2022-09-12T22:12:06.359Z,19.06
2022-09-12T22:15:29.292Z,19.04
2022-09-12T22:18:33.013Z,19.09
2022-09-12T22:21:34.599Z,19.07
2022-09-12T22:24:36.115Z,18.98
2022-09-12T22:27:39.025Z,18.95
2022-09-12T22:30:42.891Z,18.89
2022-09-12T22:33:45.614Z,18.91
2022-09-12T22:36:47.921Z,18.91
2022-09-12T22:39:49.332Z,18.90
2022-09-12T22:42:53.917Z,18.87
2022-09-12T22:45:55.302Z,18.87
2022-09-12T22:48:56.676Z,18.81
2022-09-12T22:51:58.046Z,18.77
2022-09-12T22:54:59.472Z,18.73
2022-09-12T22:58:00.872Z,18.65
2022-09-12T23:01:02.671Z,18.66
2022-09-12T23:04:04.927Z,18.71
2022-09-12T23:07:06.556Z,18.67
2022-09-12T23:10:08.301Z,18.69
2022-09-12T23:13:10.056Z,18.65
2022-09-12T23:16:16.222Z,18.65
2022-09-12T23:19:17.718Z,18.60
2022-09-12T23:22:19.832Z,18.57
2022-09-12T23:25:22.751Z,18.53
2022-09-12T23:28:24.171Z,18.45
2022-09-12T23:31:31.011Z,18.44
2022-09-12T23:34:33.437Z,18.42
2022-09-12T23:37:34.810Z,18.43
2022-09-12T23:40:36.164Z,18.43
2022-09-12T23:43:37.753Z,18.37
2022-09-12T23:46:39.115Z,18.32
2022-09-12T23:49:40.505Z,18.30
2022-09-12T23:52:41.910Z,18.26
2022-09-12T23:55:44.782Z,18.23
2022-09-12T23:58:46.266Z,18.25
